Time;durP1;ratioP1;P1;durP2;ratioP2;P2;SDS_P1;SDS_P2;PMS_P1;PMS_P2;Temp;Humidity;BMP_temperature;BMP_pressure;BME280_temperature;BME280_humidity;BME280_pressure;Samples;Min_cycle;Max_cycle;Signal;HPM_P1;HPM_P2
2022/01/21 00:00:16;;;;;;;8.40;2.95;;;;;;;;;;5056012;28;20289;-76
2022/01/21 00:02:44;;;;;;;5.65;2.65;;;;;;;;;;5053034;28;20199;-77
2022/01/21 00:05:11;;;;;;;10.95;2.72;;;;;;;;;;5049897;28;20226;-75
2022/01/21 00:07:39;;;;;;;9.43;3.00;;;;;;;;;;5050864;28;20205;-77
2022/01/21 00:10:07;;;;;;;8.38;2.20;;;;;;;;;;5051889;28;20221;-77
2022/01/21 00:12:36;;;;;;;9.82;2.70;;;;;;;;;;5050502;28;20203;-76
2022/01/21 00:15:04;;;;;;;10.98;2.95;;;;;;;;;;5053853;28;20222;-76
2022/01/21 00:17:32;;;;;;;7.28;2.85;;;;;;;;;;5051906;28;20691;-75
2022/01/21 00:30:43;;;;;;;10.60;2.97;;;;;;;;;;5051919;28;20368;-77
2022/01/21 00:33:12;;;;;;;7.45;2.80;;;;;;;;;;5052314;28;20615;-76
2022/01/21 00:35:39;;;;;;;13.20;2.63;;;;;;;;;;5052336;28;20225;-76
2022/01/21 00:38:06;;;;;;;9.18;3.53;;;;;;;;;;5048162;28;20221;-76
2022/01/21 00:40:34;;;;;;;11.68;3.53;;;;;;;;;;5049997;28;20198;-76
2022/01/21 00:43:14;;;;;;;7.05;2.80;;;;;;;;;;5051593;28;20198;-77
2022/01/21 00:45:41;;;;;;;10.00;3.08;;;;;;;;;;5051482;28;20214;-77
2022/01/21 00:48:08;;;;;;;7.93;3.00;;;;;;;;;;5051326;28;20191;-76
2022/01/21 00:50:37;;;;;;;6.90;2.80;;;;;;;;;;5051702;28;20202;-77
2022/01/21 00:53:05;;;;;;;12.35;2.75;;;;;;;;;;5062328;28;20689;-77
2022/01/21 00:55:32;;;;;;;8.52;2.88;;;;;;;;;;5047833;28;20679;-77
2022/01/21 00:57:59;;;;;;;6.50;2.38;;;;;;;;;;5047970;28;20226;-76
2022/01/21 01:00:26;;;;;;;9.68;3.13;;;;;;;;;;5051103;28;20209;-77
2022/01/21 01:02:53;;;;;;;12.48;3.08;;;;;;;;;;5051730;28;20213;-75
2022/01/21 01:05:20;;;;;;;8.63;3.45;;;;;;;;;;5040974;28;20220;-76
2022/01/21 01:07:49;;;;;;;19.73;3.78;;;;;;;;;;5040422;28;20199;-78
2022/01/21 01:10:23;;;;;;;13.32;3.60;;;;;;;;;;5044517;28;20203;-77
2022/01/21 01:12:59;;;;;;;14.02;3.50;;;;;;;;;;5041151;28;20713;-77
2022/01/21 01:20:49;;;;;;;4.82;3.60;;;;;;;;;;5050327;28;20238;-76
2022/01/21 01:28:39;;;;;;;16.63;3.60;;;;;;;;;;5006953;28;20739;-76
2022/01/21 01:31:07;;;;;;;16.98;3.50;;;;;;;;;;5005997;28;20200;-76
2022/01/21 01:33:38;;;;;;;11.48;3.33;;;;;;;;;;5007354;28;20732;-75
2022/01/21 01:36:06;;;;;;;9.05;3.20;;;;;;;;;;5007011;28;20192;-76
2022/01/21 01:38:58;;;;;;;6.45;3.50;;;;;;;;;;4993139;28;20220;-76
2022/01/21 01:41:30;;;;;;;12.93;3.13;;;;;;;;;;5007932;28;20200;-76
2022/01/21 01:49:30;;;;;;;9.50;2.78;;;;;;;;;;5005883;28;20220;-76
2022/01/21 01:51:58;;;;;;;8.10;2.97;;;;;;;;;;5005975;28;20200;-76
2022/01/21 01:54:27;;;;;;;9.57;2.70;;;;;;;;;;4987946;28;20643;-76
2022/01/21 01:56:55;;;;;;;10.00;3.45;;;;;;;;;;5024990;28;20285;-75
2022/01/21 01:59:23;;;;;;;9.05;2.63;;;;;;;;;;5050068;28;20198;-76
2022/01/21 02:01:53;;;;;;;5.10;2.70;;;;;;;;;;5047771;28;20636;-76
2022/01/21 02:04:21;;;;;;;14.85;3.50;;;;;;;;;;5052030;28;20223;-76
2022/01/21 02:06:49;;;;;;;10.70;2.72;;;;;;;;;;5050608;28;20206;-75
2022/01/21 02:09:16;;;;;;;10.15;3.08;;;;;;;;;;5051026;28;20713;-76
2022/01/21 02:11:45;;;;;;;8.35;3.45;;;;;;;;;;5046368;28;20205;-76
2022/01/21 02:14:16;;;;;;;12.45;2.95;;;;;;;;;;5048658;28;20214;-76
2022/01/21 02:17:08;;;;;;;15.90;3.30;;;;;;;;;;5048011;28;20252;-77
2022/01/21 02:22:22;;;;;;;10.20;3.45;;;;;;;;;;5048521;28;20265;-77
2022/01/21 02:24:53;;;;;;;9.23;4.70;;;;;;;;;;5049202;28;20625;-77
2022/01/21 02:27:20;;;;;;;12.80;4.32;;;;;;;;;;5052389;28;20231;-76
2022/01/21 02:29:49;;;;;;;11.30;3.78;;;;;;;;;;5050219;28;20199;-76
2022/01/21 02:32:17;;;;;;;9.90;4.22;;;;;;;;;;5051956;28;20241;-77
2022/01/21 02:34:44;;;;;;;11.23;3.80;;;;;;;;;;5046999;28;20222;-76
2022/01/21 02:37:12;;;;;;;7.60;3.80;;;;;;;;;;5047448;28;20218;-76
2022/01/21 02:39:40;;;;;;;14.77;4.35;;;;;;;;;;5048082;28;20553;-76
2022/01/21 02:42:08;;;;;;;10.10;3.67;;;;;;;;;;5050697;28;20198;-76
2022/01/21 02:44:35;;;;;;;7.95;3.42;;;;;;;;;;5050072;28;20230;-76
2022/01/21 02:47:04;;;;;;;11.55;4.47;;;;;;;;;;5049773;28;20267;-76
2022/01/21 02:49:32;;;;;;;11.73;3.90;;;;;;;;;;5050968;28;20234;-77
2022/01/21 02:52:01;;;;;;;12.65;4.35;;;;;;;;;;5051837;28;20224;-77
2022/01/21 02:54:30;;;;;;;12.50;4.43;;;;;;;;;;5049948;28;20307;-76
2022/01/21 02:56:59;;;;;;;11.13;4.35;;;;;;;;;;5048017;28;20321;-76
2022/01/21 02:59:26;;;;;;;18.05;4.32;;;;;;;;;;5048596;28;20225;-76
2022/01/21 03:01:53;;;;;;;11.73;5.28;;;;;;;;;;5049834;28;20202;-77
2022/01/21 03:04:27;;;;;;;14.02;4.50;;;;;;;;;;5047578;28;20492;-76
2022/01/21 03:06:54;;;;;;;8.52;3.35;;;;;;;;;;5044012;28;20221;-76
2022/01/21 03:09:21;;;;;;;14.82;4.55;;;;;;;;;;5050219;28;20197;-77
2022/01/21 03:11:49;;;;;;;9.43;4.25;;;;;;;;;;5048219;28;20203;-77
2022/01/21 03:14:17;;;;;;;9.23;4.15;;;;;;;;;;5047388;28;20211;-75
2022/01/21 03:16:44;;;;;;;8.50;3.97;;;;;;;;;;5047317;28;20242;-77
2022/01/21 03:19:12;;;;;;;9.77;4.20;;;;;;;;;;5048027;28;20221;-76
2022/01/21 03:21:39;;;;;;;7.45;3.90;;;;;;;;;;5048074;28;20229;-77
2022/01/21 03:24:06;;;;;;;14.80;4.40;;;;;;;;;;5048000;28;20317;-76
2022/01/21 03:26:33;;;;;;;12.73;4.65;;;;;;;;;;5048664;28;20202;-77
2022/01/21 03:29:02;;;;;;;16.27;3.85;;;;;;;;;;5049397;28;20648;-76
2022/01/21 03:31:31;;;;;;;9.20;4.05;;;;;;;;;;5051301;28;20354;-77
2022/01/21 03:33:59;;;;;;;9.13;3.60;;;;;;;;;;5051738;28;20211;-75
2022/01/21 03:36:26;;;;;;;13.00;4.07;;;;;;;;;;5049659;28;20564;-77
2022/01/21 03:38:54;;;;;;;13.07;4.22;;;;;;;;;;5053963;28;20233;-76
2022/01/21 03:41:21;;;;;;;7.18;3.42;;;;;;;;;;5051626;28;20528;-76
2022/01/21 03:43:49;;;;;;;10.85;4.05;;;;;;;;;;5050927;28;20294;-77
2022/01/21 03:46:17;;;;;;;11.35;3.97;;;;;;;;;;5049392;28;20194;-77
2022/01/21 03:48:48;;;;;;;11.85;3.78;;;;;;;;;;5051351;28;20198;-76
2022/01/21 03:51:15;;;;;;;7.75;3.13;;;;;;;;;;5051562;28;20199;-77
2022/01/21 03:53:44;;;;;;;9.40;3.47;;;;;;;;;;5051747;28;20541;-77
2022/01/21 03:56:11;;;;;;;11.07;3.00;;;;;;;;;;5039194;28;20199;-76
2022/01/21 03:58:38;;;;;;;10.57;3.20;;;;;;;;;;5048713;28;20229;-76
2022/01/21 04:01:05;;;;;;;12.13;3.35;;;;;;;;;;5048592;28;20564;-76
2022/01/21 04:03:33;;;;;;;6.95;3.40;;;;;;;;;;5049565;28;20309;-76
2022/01/21 04:06:01;;;;;;;11.60;3.45;;;;;;;;;;5047947;28;20210;-76
2022/01/21 04:08:28;;;;;;;7.95;3.42;;;;;;;;;;5051539;28;20201;-76
2022/01/21 04:10:55;;;;;;;14.50;3.00;;;;;;;;;;5052438;28;20636;-77
2022/01/21 04:13:25;;;;;;;7.50;2.88;;;;;;;;;;5048204;28;20191;-77
2022/01/21 04:15:53;;;;;;;7.60;3.20;;;;;;;;;;5051175;28;20226;-76
2022/01/21 04:18:22;;;;;;;13.88;3.42;;;;;;;;;;5039772;28;20224;-77
2022/01/21 04:20:50;;;;;;;10.35;2.95;;;;;;;;;;5043262;28;20650;-77
2022/01/21 04:23:20;;;;;;;10.32;3.15;;;;;;;;;;5052893;28;20206;-77
2022/01/21 04:25:48;;;;;;;15.55;4.85;;;;;;;;;;5050536;28;20225;-78
2022/01/21 04:28:15;;;;;;;14.43;4.80;;;;;;;;;;5052302;28;20611;-77
2022/01/21 04:30:42;;;;;;;7.30;3.20;;;;;;;;;;5052744;28;20244;-76
2022/01/21 04:33:10;;;;;;;8.77;3.28;;;;;;;;;;5052372;28;20203;-75
2022/01/21 04:35:37;;;;;;;14.00;3.85;;;;;;;;;;5048650;28;20650;-76
2022/01/21 04:38:08;;;;;;;8.38;3.80;;;;;;;;;;5040117;28;20250;-76
2022/01/21 04:40:43;;;;;;;10.73;3.80;;;;;;;;;;5030577;28;20294;-77
2022/01/21 04:48:32;;;;;;;9.13;4.20;;;;;;;;;;5050310;28;20623;-75
2022/01/21 04:51:12;;;;;;;11.85;3.60;;;;;;;;;;5051066;28;20896;-76
2022/01/21 04:53:40;;;;;;;11.32;4.43;;;;;;;;;;5047912;28;20195;-77
2022/01/21 04:56:08;;;;;;;9.30;3.75;;;;;;;;;;5051083;28;20206;-74
2022/01/21 04:58:35;;;;;;;16.63;4.30;;;;;;;;;;5047926;28;20218;-76
2022/01/21 05:01:04;;;;;;;12.55;5.10;;;;;;;;;;5050917;28;20198;-75
2022/01/21 05:03:32;;;;;;;10.68;4.18;;;;;;;;;;5051769;28;20298;-76
2022/01/21 05:06:00;;;;;;;9.68;4.40;;;;;;;;;;5051993;28;20294;-77
2022/01/21 05:08:31;;;;;;;13.57;5.18;;;;;;;;;;5051905;28;20599;-76
2022/01/21 05:11:00;;;;;;;8.57;4.38;;;;;;;;;;5052899;28;20248;-76
2022/01/21 05:13:36;;;;;;;9.30;4.50;;;;;;;;;;5052246;28;20202;-76
2022/01/21 05:16:07;;;;;;;8.50;3.90;;;;;;;;;;5049415;28;20584;-76
2022/01/21 05:18:34;;;;;;;8.48;4.40;;;;;;;;;;5049622;28;20230;-76
2022/01/21 05:21:01;;;;;;;14.52;4.28;;;;;;;;;;5052058;28;20226;-77
2022/01/21 05:23:29;;;;;;;11.85;4.22;;;;;;;;;;5049348;28;20198;-76
2022/01/21 05:25:56;;;;;;;9.13;4.10;;;;;;;;;;5049633;28;20226;-77
2022/01/21 05:28:23;;;;;;;6.80;3.75;;;;;;;;;;5049447;28;20194;-77
2022/01/21 05:30:52;;;;;;;19.33;4.97;;;;;;;;;;5051417;28;20548;-75
2022/01/21 05:33:19;;;;;;;9.25;3.47;;;;;;;;;;5051721;28;20203;-76
2022/01/21 05:35:46;;;;;;;10.13;4.03;;;;;;;;;;5052071;28;20215;-75
2022/01/21 05:38:13;;;;;;;17.98;4.80;;;;;;;;;;5047790;28;20215;-76
2022/01/21 05:40:42;;;;;;;11.10;3.90;;;;;;;;;;5048977;28;20191;-75
2022/01/21 05:43:10;;;;;;;17.75;4.75;;;;;;;;;;5050336;28;20225;-75
2022/01/21 05:48:19;;;;;;;11.02;4.25;;;;;;;;;;5048137;28;20206;-76
2022/01/21 05:50:46;;;;;;;11.30;4.40;;;;;;;;;;5051181;28;20202;-76
2022/01/21 05:53:14;;;;;;;13.02;4.30;;;;;;;;;;5048609;28;20203;-75
2022/01/21 05:55:42;;;;;;;10.02;3.90;;;;;;;;;;5047564;28;20223;-75
2022/01/21 05:58:10;;;;;;;15.85;4.50;;;;;;;;;;5047590;28;20575;-75
2022/01/21 06:00:38;;;;;;;10.43;3.90;;;;;;;;;;5049806;28;20663;-76
2022/01/21 06:03:05;;;;;;;12.45;4.10;;;;;;;;;;5049402;28;20213;-75
2022/01/21 06:05:34;;;;;;;9.80;3.78;;;;;;;;;;5051229;28;20225;-76
2022/01/21 06:08:02;;;;;;;12.60;4.78;;;;;;;;;;5049862;28;20206;-76
2022/01/21 06:10:29;;;;;;;9.70;4.28;;;;;;;;;;5048668;28;20203;-76
2022/01/21 06:12:56;;;;;;;11.73;3.80;;;;;;;;;;5048223;28;20265;-76
2022/01/21 06:15:24;;;;;;;8.85;4.63;;;;;;;;;;5050728;28;20322;-75
2022/01/21 06:17:51;;;;;;;13.45;4.80;;;;;;;;;;5050793;28;20560;-76
2022/01/21 06:20:18;;;;;;;12.68;4.30;;;;;;;;;;5044852;28;20219;-75
2022/01/21 06:22:48;;;;;;;7.72;4.25;;;;;;;;;;5050597;28;20837;-76
2022/01/21 06:25:15;;;;;;;9.05;4.32;;;;;;;;;;5050122;28;20222;-77
2022/01/21 06:27:44;;;;;;;11.35;5.15;;;;;;;;;;5047977;28;20187;-76
2022/01/21 06:30:12;;;;;;;13.07;4.75;;;;;;;;;;5033057;28;20231;-76
2022/01/21 06:32:39;;;;;;;8.00;4.22;;;;;;;;;;5050206;28;20214;-76
2022/01/21 06:35:07;;;;;;;11.88;4.95;;;;;;;;;;5050359;28;20214;-75
2022/01/21 06:37:34;;;;;;;8.18;4.30;;;;;;;;;;5050823;28;20195;-75
2022/01/21 06:40:03;;;;;;;11.65;4.50;;;;;;;;;;5049771;28;20225;-76
2022/01/21 06:42:30;;;;;;;17.17;5.53;;;;;;;;;;5050043;28;20540;-76
2022/01/21 06:44:57;;;;;;;12.25;5.10;;;;;;;;;;5048502;28;20245;-76
2022/01/21 06:47:25;;;;;;;10.57;5.07;;;;;;;;;;5048467;28;20198;-77
2022/01/21 06:49:52;;;;;;;11.30;5.95;;;;;;;;;;5049863;28;20198;-76
2022/01/21 06:52:20;;;;;;;11.77;5.80;;;;;;;;;;5050799;28;20190;-76
2022/01/21 06:54:48;;;;;;;18.75;5.90;;;;;;;;;;5050576;28;20214;-77
2022/01/21 06:57:16;;;;;;;11.25;6.07;;;;;;;;;;5051002;28;20198;-77
2022/01/21 06:59:44;;;;;;;19.92;7.85;;;;;;;;;;5050290;28;20218;-76
2022/01/21 07:02:11;;;;;;;20.33;8.40;;;;;;;;;;5049269;28;20656;-76
2022/01/21 07:04:38;;;;;;;15.05;5.90;;;;;;;;;;5050834;28;20214;-77
2022/01/21 07:07:05;;;;;;;16.52;7.00;;;;;;;;;;5051970;28;20195;-77
2022/01/21 07:09:33;;;;;;;11.50;6.15;;;;;;;;;;5052733;28;21418;-77
2022/01/21 07:12:00;;;;;;;11.13;6.70;;;;;;;;;;5053234;28;20194;-76
2022/01/21 07:14:28;;;;;;;13.55;5.13;;;;;;;;;;5054150;28;20221;-76
2022/01/21 07:16:56;;;;;;;12.40;4.63;;;;;;;;;;5053916;28;20281;-76
2022/01/21 07:19:23;;;;;;;10.30;4.90;;;;;;;;;;5053550;28;20211;-76
2022/01/21 07:21:50;;;;;;;16.00;5.25;;;;;;;;;;5055684;28;20597;-76
2022/01/21 07:24:17;;;;;;;14.48;4.10;;;;;;;;;;5053275;28;20223;-75
2022/01/21 07:26:44;;;;;;;14.13;5.32;;;;;;;;;;5049443;28;20616;-78
2022/01/21 07:29:12;;;;;;;9.63;4.28;;;;;;;;;;5053766;28;20656;-75
2022/01/21 07:31:40;;;;;;;6.63;4.18;;;;;;;;;;5051426;28;20802;-75
2022/01/21 07:34:07;;;;;;;6.68;3.65;;;;;;;;;;5054573;28;20560;-77
2022/01/21 07:36:35;;;;;;;12.63;3.78;;;;;;;;;;5052566;28;20194;-76
2022/01/21 07:39:03;;;;;;;11.68;5.05;;;;;;;;;;5053189;28;20219;-75
2022/01/21 07:41:30;;;;;;;18.10;6.07;;;;;;;;;;5053826;28;20648;-76
2022/01/21 07:43:57;;;;;;;13.60;6.28;;;;;;;;;;5055373;28;20222;-76
2022/01/21 07:46:26;;;;;;;11.48;5.13;;;;;;;;;;5052987;28;20187;-76
2022/01/21 07:48:55;;;;;;;11.55;5.13;;;;;;;;;;5049936;28;20232;-77
2022/01/21 07:51:22;;;;;;;12.98;6.18;;;;;;;;;;5050548;28;20215;-77
2022/01/21 07:53:49;;;;;;;15.10;7.03;;;;;;;;;;5053720;28;20564;-75
2022/01/21 07:56:16;;;;;;;10.25;6.25;;;;;;;;;;5053175;28;20190;-77
2022/01/21 07:58:44;;;;;;;13.00;5.57;;;;;;;;;;5052589;28;20202;-76
2022/01/21 08:01:11;;;;;;;8.50;4.60;;;;;;;;;;5052007;28;20556;-76
2022/01/21 08:03:38;;;;;;;14.02;6.22;;;;;;;;;;5043164;28;20206;-76
2022/01/21 08:06:07;;;;;;;9.88;5.65;;;;;;;;;;5051044;28;20198;-76
2022/01/21 08:08:34;;;;;;;17.70;5.75;;;;;;;;;;5033459;28;20693;-76
2022/01/21 08:11:01;;;;;;;18.13;5.45;;;;;;;;;;5052557;28;20206;-76
2022/01/21 08:13:28;;;;;;;6.72;4.70;;;;;;;;;;5048855;28;20290;-75
2022/01/21 08:15:56;;;;;;;12.15;5.28;;;;;;;;;;5051664;28;20574;-75
2022/01/21 08:18:23;;;;;;;10.20;5.10;;;;;;;;;;5053277;28;20199;-74
2022/01/21 08:20:50;;;;;;;14.98;5.35;;;;;;;;;;5050084;28;20220;-76
2022/01/21 08:23:19;;;;;;;13.77;6.25;;;;;;;;;;5040498;28;20636;-76
2022/01/21 08:25:46;;;;;;;12.15;5.80;;;;;;;;;;5052036;28;20224;-76
2022/01/21 08:28:14;;;;;;;12.23;5.55;;;;;;;;;;5050736;28;20199;-75
2022/01/21 08:30:41;;;;;;;14.43;5.57;;;;;;;;;;5051106;28;20194;-76
2022/01/21 08:33:08;;;;;;;12.48;5.55;;;;;;;;;;5051469;28;20548;-76
2022/01/21 08:35:36;;;;;;;16.75;7.25;;;;;;;;;;5052221;28;20714;-75
2022/01/21 08:38:03;;;;;;;13.02;6.15;;;;;;;;;;5051552;28;20324;-77
2022/01/21 08:40:32;;;;;;;24.50;9.75;;;;;;;;;;5052302;28;20236;-76
2022/01/21 08:42:59;;;;;;;16.67;7.32;;;;;;;;;;5035011;28;20191;-75
2022/01/21 08:45:29;;;;;;;16.08;6.30;;;;;;;;;;5053829;28;20221;-75
2022/01/21 08:47:56;;;;;;;20.25;6.05;;;;;;;;;;5032784;28;20293;-76
2022/01/21 08:50:25;;;;;;;12.70;5.97;;;;;;;;;;5032602;28;20214;-75
2022/01/21 08:52:56;;;;;;;10.40;5.18;;;;;;;;;;5050556;28;20265;-76
2022/01/21 08:55:23;;;;;;;16.45;6.32;;;;;;;;;;5048030;28;20222;-76
2022/01/21 08:57:52;;;;;;;11.13;6.05;;;;;;;;;;5034199;28;20660;-77
2022/01/21 09:00:20;;;;;;;14.48;6.95;;;;;;;;;;5049950;28;20296;-76
2022/01/21 09:02:48;;;;;;;27.25;7.43;;;;;;;;;;5048345;28;20652;-75
2022/01/21 09:05:16;;;;;;;20.75;7.35;;;;;;;;;;5050763;28;20214;-75
2022/01/21 09:07:43;;;;;;;18.42;7.57;;;;;;;;;;5047290;28;20198;-76
2022/01/21 09:10:11;;;;;;;14.05;6.15;;;;;;;;;;5050082;28;20191;-75
2022/01/21 09:12:38;;;;;;;8.60;5.50;;;;;;;;;;5050333;28;20201;-76
2022/01/21 09:15:08;;;;;;;11.27;5.63;;;;;;;;;;5051253;28;20206;-75
2022/01/21 09:17:36;;;;;;;13.00;5.93;;;;;;;;;;5033577;28;20655;-76
2022/01/21 09:20:04;;;;;;;13.18;5.78;;;;;;;;;;5050513;28;20566;-76
2022/01/21 09:22:31;;;;;;;18.63;6.28;;;;;;;;;;5038212;28;20224;-76
2022/01/21 09:24:58;;;;;;;7.75;4.50;;;;;;;;;;5049375;28;20758;-74
2022/01/21 09:27:25;;;;;;;12.90;6.68;;;;;;;;;;5048308;28;20198;-72
2022/01/21 09:29:52;;;;;;;15.13;6.05;;;;;;;;;;5047929;28;20199;-76
2022/01/21 09:32:21;;;;;;;9.52;6.30;;;;;;;;;;5050936;28;20194;-76
2022/01/21 09:34:48;;;;;;;14.75;5.40;;;;;;;;;;5050674;28;20218;-76
2022/01/21 09:37:15;;;;;;;13.10;6.25;;;;;;;;;;5049068;28;20202;-76
2022/01/21 09:39:43;;;;;;;17.10;5.97;;;;;;;;;;5047539;28;20211;-75
2022/01/21 09:42:11;;;;;;;12.77;6.40;;;;;;;;;;5048789;28;20214;-76
2022/01/21 09:44:39;;;;;;;11.73;6.53;;;;;;;;;;5051552;28;20218;-75
2022/01/21 09:47:06;;;;;;;16.70;7.03;;;;;;;;;;5050873;28;20191;-75
2022/01/21 09:49:35;;;;;;;16.67;7.47;;;;;;;;;;5051619;28;20194;-76
2022/01/21 09:52:04;;;;;;;12.88;6.95;;;;;;;;;;5049676;28;20199;-76
2022/01/21 09:54:32;;;;;;;17.05;6.50;;;;;;;;;;5045432;28;20214;-76
2022/01/21 09:57:00;;;;;;;11.30;5.72;;;;;;;;;;5048345;28;20248;-76
2022/01/21 09:59:28;;;;;;;8.57;5.10;;;;;;;;;;5049562;28;20198;-76
2022/01/21 10:01:56;;;;;;;13.07;5.78;;;;;;;;;;5050937;28;20195;-76
2022/01/21 10:04:27;;;;;;;15.60;7.55;;;;;;;;;;5049639;28;20211;-76
2022/01/21 10:06:56;;;;;;;18.13;5.68;;;;;;;;;;5051541;28;20198;-76
2022/01/21 10:09:24;;;;;;;12.70;6.05;;;;;;;;;;5052165;28;20190;-77
2022/01/21 10:11:52;;;;;;;12.88;5.15;;;;;;;;;;5048552;28;20560;-77
2022/01/21 10:14:22;;;;;;;13.75;5.97;;;;;;;;;;5049140;28;20221;-77
2022/01/21 10:16:49;;;;;;;12.18;5.22;;;;;;;;;;5051152;28;20668;-76
2022/01/21 10:19:22;;;;;;;11.25;6.45;;;;;;;;;;5046867;28;20644;-75
2022/01/21 10:21:57;;;;;;;8.25;4.72;;;;;;;;;;5050899;28;20237;-77
2022/01/21 10:24:26;;;;;;;16.65;6.63;;;;;;;;;;5049351;28;20313;-77
2022/01/21 10:26:56;;;;;;;21.00;6.18;;;;;;;;;;5052405;28;20206;-77
2022/01/21 10:29:24;;;;;;;8.80;4.85;;;;;;;;;;5050904;28;20244;-76
2022/01/21 10:31:54;;;;;;;10.45;5.22;;;;;;;;;;5051634;28;20195;-75
2022/01/21 10:34:25;;;;;;;7.82;5.25;;;;;;;;;;5038763;28;20229;-75
2022/01/21 10:36:56;;;;;;;8.65;5.10;;;;;;;;;;5032585;28;20567;-76
2022/01/21 10:39:31;;;;;;;8.60;4.72;;;;;;;;;;5038026;28;20191;-75
2022/01/21 10:41:59;;;;;;;10.00;4.72;;;;;;;;;;5049800;28;20197;-75
2022/01/21 10:44:30;;;;;;;10.73;4.93;;;;;;;;;;5031215;28;20250;-77
2022/01/21 10:47:11;;;;;;;11.80;4.90;;;;;;;;;;5036046;28;20229;-75
2022/01/21 10:49:42;;;;;;;6.00;4.30;;;;;;;;;;5032635;28;20660;-75
2022/01/21 10:52:10;;;;;;;7.82;4.90;;;;;;;;;;5051295;28;20256;-76
2022/01/21 10:54:43;;;;;;;10.60;5.05;;;;;;;;;;5048848;28;20207;-76
2022/01/21 10:57:12;;;;;;;9.55;4.70;;;;;;;;;;5047685;28;20201;-76
2022/01/21 10:59:48;;;;;;;10.50;5.70;;;;;;;;;;5045636;28;20230;-75
2022/01/21 11:02:15;;;;;;;9.38;4.53;;;;;;;;;;5059619;28;20563;-76
2022/01/21 11:04:43;;;;;;;8.27;4.43;;;;;;;;;;5069890;28;20218;-76
2022/01/21 11:07:15;;;;;;;15.63;5.07;;;;;;;;;;5067107;28;20198;-75
2022/01/21 11:09:43;;;;;;;16.30;5.65;;;;;;;;;;5051709;28;20225;-77
2022/01/21 11:12:11;;;;;;;10.30;4.32;;;;;;;;;;5039489;28;20198;-76
2022/01/21 11:14:40;;;;;;;12.90;5.15;;;;;;;;;;5031758;28;20222;-77
2022/01/21 11:17:11;;;;;;;11.70;5.60;;;;;;;;;;5042260;28;20191;-77
2022/01/21 11:19:38;;;;;;;9.55;4.97;;;;;;;;;;5048729;28;20202;-75
2022/01/21 11:22:07;;;;;;;7.47;4.65;;;;;;;;;;5049957;28;20226;-75
2022/01/21 11:24:35;;;;;;;11.07;4.07;;;;;;;;;;5048110;28;20222;-76
2022/01/21 11:27:17;;;;;;;9.93;5.07;;;;;;;;;;5049080;28;20202;-77
2022/01/21 11:29:47;;;;;;;6.75;4.22;;;;;;;;;;5046518;28;20666;-76
2022/01/21 11:32:15;;;;;;;8.02;4.00;;;;;;;;;;5040879;28;20202;-75
2022/01/21 11:34:43;;;;;;;6.57;4.03;;;;;;;;;;5046167;28;20225;-76
2022/01/21 11:37:10;;;;;;;10.65;4.10;;;;;;;;;;5047350;28;20195;-75
2022/01/21 11:39:37;;;;;;;11.57;3.85;;;;;;;;;;5034516;28;20199;-77
2022/01/21 11:42:06;;;;;;;9.27;3.92;;;;;;;;;;5029575;28;20219;-75
2022/01/21 11:44:37;;;;;;;7.05;3.92;;;;;;;;;;5047660;28;20219;-76
2022/01/21 11:47:28;;;;;;;6.20;3.78;;;;;;;;;;5047331;28;20284;-76
2022/01/21 11:49:56;;;;;;;7.40;3.72;;;;;;;;;;5047789;28;20202;-76
2022/01/21 11:52:23;;;;;;;8.50;4.38;;;;;;;;;;5041034;28;20202;-75
2022/01/21 11:54:51;;;;;;;11.90;4.07;;;;;;;;;;5050065;28;20217;-75
2022/01/21 11:57:27;;;;;;;9.90;4.47;;;;;;;;;;5050060;28;20219;-75
2022/01/21 12:00:01;;;;;;;7.68;3.53;;;;;;;;;;5052134;28;20281;-75
2022/01/21 12:02:31;;;;;;;6.32;3.17;;;;;;;;;;5052337;28;20320;-75
2022/01/21 12:05:00;;;;;;;8.98;3.67;;;;;;;;;;5052997;28;20622;-75
2022/01/21 12:07:44;;;;;;;7.85;4.00;;;;;;;;;;5032841;28;20214;-75
2022/01/21 12:10:12;;;;;;;10.77;4.00;;;;;;;;;;5042491;28;20641;-75
2022/01/21 12:12:56;;;;;;;9.30;3.08;;;;;;;;;;5050043;28;20670;-75
2022/01/21 12:15:26;;;;;;;9.15;4.40;;;;;;;;;;5032431;28;20225;-75
2022/01/21 12:18:06;;;;;;;8.75;3.40;;;;;;;;;;5033520;28;20195;-75
2022/01/21 12:20:34;;;;;;;6.00;3.53;;;;;;;;;;5045580;28;20206;-78
2022/01/21 12:23:11;;;;;;;9.68;3.78;;;;;;;;;;5051368;28;20213;-77
2022/01/21 12:26:04;;;;;;;11.02;3.78;;;;;;;;;;5049849;28;20206;-76
2022/01/21 12:28:31;;;;;;;6.72;4.10;;;;;;;;;;5045302;28;20191;-76
2022/01/21 12:30:58;;;;;;;7.68;3.75;;;;;;;;;;5049195;28;20203;-75
2022/01/21 12:33:49;;;;;;;8.02;3.85;;;;;;;;;;5052587;28;20211;-75
2022/01/21 12:36:17;;;;;;;6.95;3.75;;;;;;;;;;5052344;28;20324;-77
2022/01/21 12:41:47;;;;;;;12.40;4.72;;;;;;;;;;5046917;28;20242;-75
2022/01/21 12:44:30;;;;;;;12.07;5.75;;;;;;;;;;5040309;28;20241;-76
2022/01/21 12:46:57;;;;;;;8.77;4.55;;;;;;;;;;5051418;28;20205;-75
2022/01/21 12:49:46;;;;;;;17.60;9.57;;;;;;;;;;5052258;28;20198;-76
2022/01/21 12:52:27;;;;;;;10.38;6.20;;;;;;;;;;5050986;28;20679;-76
2022/01/21 12:57:36;;;;;;;12.50;7.60;;;;;;;;;;5051562;28;20257;-76
2022/01/21 13:00:07;;;;;;;8.80;5.43;;;;;;;;;;5049712;28;20666;-76
2022/01/21 13:02:34;;;;;;;10.57;6.25;;;;;;;;;;5050065;28;20199;-76
2022/01/21 13:05:07;;;;;;;8.77;4.63;;;;;;;;;;5049884;28;20671;-76
2022/01/21 13:07:44;;;;;;;7.53;5.18;;;;;;;;;;5050030;28;20205;-76
2022/01/21 13:10:17;;;;;;;12.40;4.20;;;;;;;;;;5050933;28;20195;-76
2022/01/21 13:12:59;;;;;;;8.05;3.85;;;;;;;;;;5052100;28;20194;-76
2022/01/21 13:15:27;;;;;;;10.60;3.80;;;;;;;;;;5048670;28;20305;-77
2022/01/21 13:18:01;;;;;;;8.45;3.70;;;;;;;;;;5049497;28;20279;-77
2022/01/21 13:20:29;;;;;;;12.10;3.85;;;;;;;;;;5052961;28;20198;-76
2022/01/21 13:22:58;;;;;;;9.75;4.45;;;;;;;;;;5053290;28;20556;-78
2022/01/21 13:25:26;;;;;;;7.07;3.83;;;;;;;;;;5050679;28;20218;-77
2022/01/21 13:27:54;;;;;;;10.65;3.80;;;;;;;;;;5038826;28;20194;-77
2022/01/21 13:30:23;;;;;;;9.73;3.10;;;;;;;;;;5050587;28;20202;-77
2022/01/21 13:32:58;;;;;;;6.15;3.38;;;;;;;;;;5048999;28;20191;-78
2022/01/21 13:35:25;;;;;;;11.88;4.90;;;;;;;;;;5052435;28;20228;-76
2022/01/21 13:38:07;;;;;;;5.78;3.70;;;;;;;;;;5051202;28;20198;-76
2022/01/21 13:40:38;;;;;;;6.82;3.65;;;;;;;;;;5049309;28;20226;-75
2022/01/21 13:43:14;;;;;;;7.50;3.22;;;;;;;;;;5048188;28;20202;-76
2022/01/21 13:45:42;;;;;;;15.43;4.38;;;;;;;;;;5046373;28;20301;-76
2022/01/21 13:48:10;;;;;;;12.70;4.95;;;;;;;;;;5029903;28;20197;-76
2022/01/21 13:50:44;;;;;;;5.88;3.45;;;;;;;;;;5046486;28;20201;-76
2022/01/21 13:53:11;;;;;;;12.05;4.18;;;;;;;;;;5050368;28;20198;-76
2022/01/21 13:55:41;;;;;;;11.52;4.68;;;;;;;;;;5049875;28;20210;-77
2022/01/21 13:58:09;;;;;;;7.28;3.83;;;;;;;;;;5048600;28;20992;-77
2022/01/21 14:00:38;;;;;;;6.43;3.50;;;;;;;;;;5045464;28;20202;-76
2022/01/21 14:03:07;;;;;;;13.70;4.88;;;;;;;;;;5049615;28;20203;-76
2022/01/21 14:05:48;;;;;;;16.30;5.18;;;;;;;;;;5049738;28;20253;-78
2022/01/21 14:08:17;;;;;;;11.90;4.82;;;;;;;;;;5030594;28;20206;-77
2022/01/21 14:10:45;;;;;;;16.23;4.70;;;;;;;;;;5031674;28;20201;-76
2022/01/21 14:13:13;;;;;;;12.98;5.82;;;;;;;;;;5044591;28;20569;-76
2022/01/21 14:15:40;;;;;;;12.85;4.95;;;;;;;;;;5047379;28;20215;-76
2022/01/21 14:18:07;;;;;;;12.45;5.00;;;;;;;;;;5049513;28;20214;-75
2022/01/21 14:20:36;;;;;;;11.95;4.93;;;;;;;;;;5049789;28;20711;-76
2022/01/21 14:23:04;;;;;;;12.45;5.28;;;;;;;;;;5049282;28;20205;-76
2022/01/21 14:25:31;;;;;;;8.18;5.28;;;;;;;;;;5050157;28;20245;-76
2022/01/21 14:28:00;;;;;;;11.85;5.80;;;;;;;;;;5048773;28;20563;-76
2022/01/21 14:30:27;;;;;;;10.80;6.45;;;;;;;;;;5048787;28;20195;-76
2022/01/21 14:32:56;;;;;;;11.52;7.32;;;;;;;;;;5048130;28;20189;-76
2022/01/21 14:35:27;;;;;;;9.98;6.95;;;;;;;;;;5050289;28;20313;-76
2022/01/21 14:37:55;;;;;;;13.88;6.25;;;;;;;;;;5050896;28;20203;-76
2022/01/21 14:40:25;;;;;;;15.43;6.72;;;;;;;;;;5049838;28;20195;-74
2022/01/21 14:43:03;;;;;;;15.40;7.28;;;;;;;;;;5051258;28;20218;-75
2022/01/21 14:45:30;;;;;;;20.67;7.45;;;;;;;;;;5050602;28;20210;-75
2022/01/21 14:47:58;;;;;;;13.35;7.50;;;;;;;;;;5047373;28;20195;-75
2022/01/21 14:50:26;;;;;;;15.63;7.97;;;;;;;;;;5043228;28;20221;-75
2022/01/21 14:52:55;;;;;;;15.00;7.88;;;;;;;;;;5050340;28;20198;-75
2022/01/21 14:55:23;;;;;;;13.07;7.90;;;;;;;;;;5048125;28;20242;-75
2022/01/21 14:57:52;;;;;;;16.85;8.10;;;;;;;;;;5048006;28;20194;-75
2022/01/21 15:00:30;;;;;;;20.65;9.35;;;;;;;;;;5034188;28;20649;-75
2022/01/21 15:03:06;;;;;;;18.20;9.68;;;;;;;;;;5038668;28;20226;-75
2022/01/21 15:05:34;;;;;;;14.63;9.88;;;;;;;;;;5034795;28;20223;-75
2022/01/21 15:08:01;;;;;;;17.00;10.45;;;;;;;;;;5030581;28;20560;-75
2022/01/21 15:10:35;;;;;;;17.50;10.30;;;;;;;;;;5044847;28;20194;-76
2022/01/21 15:16:06;;;;;;;13.80;10.40;;;;;;;;;;5048261;28;20194;-75
2022/01/21 15:18:34;;;;;;;22.88;12.68;;;;;;;;;;5043240;28;20201;-75
2022/01/21 15:21:01;;;;;;;17.58;12.15;;;;;;;;;;5047772;28;20226;-76
2022/01/21 15:23:28;;;;;;;19.20;11.73;;;;;;;;;;5048075;28;20203;-75
2022/01/21 15:25:56;;;;;;;22.95;12.25;;;;;;;;;;5052329;28;20218;-75
2022/01/21 15:28:23;;;;;;;16.85;11.18;;;;;;;;;;5050858;28;20689;-75
2022/01/21 15:30:50;;;;;;;20.42;12.40;;;;;;;;;;5049883;28;20195;-75